createdAt,value
2022-08-24T00:00:15.817Z,100600.38
2022-08-24T00:02:44.807Z,100597.86
2022-08-24T00:05:14.985Z,100602.06
2022-08-24T00:07:46.913Z,100607.66
2022-08-24T00:10:16.248Z,100610.75
2022-08-24T00:12:46.734Z,100607.11
2022-08-24T00:15:16.682Z,100619.44
2022-08-24T00:17:46.790Z,100614.95
2022-08-24T00:20:16.717Z,100613.56
2022-08-24T00:22:46.063Z,100618.32
2022-08-24T00:25:17.498Z,100622.80
2022-08-24T00:27:47.465Z,100621.68
2022-08-24T00:30:18.669Z,100628.67
2022-08-24T00:32:48.239Z,100622.23
2022-08-24T00:35:18.358Z,100626.43
2022-08-24T00:37:48.777Z,100627.27
2022-08-24T00:40:25.912Z,100625.55
2022-08-24T00:42:56.235Z,100630.86
2022-08-24T00:45:26.067Z,100633.09
2022-08-24T00:48:03.836Z,100632.53
2022-08-24T00:50:48.168Z,100629.97
2022-08-24T00:53:35.353Z,100628.02
2022-08-24T00:56:10.842Z,100626.89
2022-08-24T00:59:10.893Z,100625.49
2022-08-24T01:01:41.603Z,100626.88
2022-08-24T01:04:15.525Z,100631.34
2022-08-24T01:06:45.880Z,100635.25
2022-08-24T01:09:15.731Z,100637.77
2022-08-24T01:11:46.826Z,100633.55
2022-08-24T01:14:17.829Z,100630.47
2022-08-24T01:17:05.715Z,100631.85
2022-08-24T01:19:40.309Z,100634.92
2022-08-24T01:22:21.121Z,100638.53
2022-08-24T01:24:50.743Z,100640.75
2022-08-24T01:27:23.910Z,100642.70
2022-08-24T01:29:53.127Z,100639.89
2022-08-24T01:32:24.432Z,100638.50
2022-08-24T01:34:55.819Z,100637.37
2022-08-24T01:37:26.043Z,100639.89
2022-08-24T01:39:56.928Z,100649.11
2022-08-24T01:42:29.863Z,100651.60
2022-08-24T01:45:01.279Z,100648.77
2022-08-24T01:47:31.231Z,100647.05
2022-08-24T01:50:02.059Z,100659.88
2022-08-24T01:52:48.756Z,100661.53
2022-08-24T01:55:10.259Z,100661.23
2022-08-24T01:57:41.266Z,100665.13
2022-08-24T02:00:14.671Z,100659.52
2022-08-24T02:02:43.907Z,100660.34
2022-08-24T02:05:14.005Z,100662.81
2022-08-24T02:07:46.358Z,100668.92
2022-08-24T02:10:16.560Z,100667.23
2022-08-24T02:12:49.925Z,100670.00
2022-08-24T02:15:20.300Z,100668.31
2022-08-24T02:17:50.904Z,100666.06
2022-08-24T02:20:21.699Z,100671.34
2022-08-24T02:22:53.049Z,100664.06
2022-08-24T02:25:24.066Z,100663.76
2022-08-24T02:27:54.409Z,100667.64
2022-08-24T02:30:24.746Z,100668.13
2022-08-24T02:32:54.619Z,100657.77
2022-08-24T02:35:25.849Z,100659.14
2022-08-24T02:37:55.617Z,100654.06
2022-08-24T02:40:25.836Z,100663.54
2022-08-24T02:42:55.500Z,100660.75
2022-08-24T02:45:25.418Z,100658.53
2022-08-24T02:47:55.690Z,100659.38
2022-08-24T02:50:27.414Z,100658.27
2022-08-24T02:52:58.260Z,100659.66
2022-08-24T02:55:28.325Z,100667.45
2022-08-24T02:57:58.143Z,100664.94
2022-08-24T03:00:27.589Z,100668.85
2022-08-24T03:02:58.534Z,100665.51
2022-08-24T03:05:28.615Z,100670.23
2022-08-24T03:07:57.608Z,100677.45
2022-08-24T03:10:28.132Z,100677.41
2022-08-24T03:12:59.525Z,100683.80
2022-08-24T03:15:29.759Z,100683.52
2022-08-24T03:17:59.978Z,100686.84
2022-08-24T03:20:30.406Z,100685.16
2022-08-24T03:22:59.490Z,100688.77
2022-08-24T03:25:30.447Z,100685.11
2022-08-24T03:28:00.194Z,100687.05
2022-08-24T03:30:31.705Z,100684.82
2022-08-24T03:33:05.191Z,100679.82
2022-08-24T03:35:34.698Z,100684.87
2022-08-24T03:38:04.058Z,100682.66
2022-08-24T03:40:35.123Z,100688.23
2022-08-24T03:43:05.100Z,100695.19
2022-08-24T03:45:35.827Z,100695.16
2022-08-24T03:48:06.533Z,100694.87
2022-08-24T03:50:37.539Z,100696.56
2022-08-24T04:00:37.589Z,100706.89
2022-08-24T04:03:07.935Z,100703.00
2022-08-24T04:05:38.902Z,100711.37
2022-08-24T04:08:09.821Z,100703.84
2022-08-24T04:10:41.114Z,100702.18
2022-08-24T04:13:10.349Z,100707.77
2022-08-24T04:15:43.295Z,100701.89
2022-08-24T04:18:13.564Z,100703.87
2022-08-24T04:20:45.057Z,100702.49
2022-08-24T04:23:17.181Z,100695.25
2022-08-24T04:25:48.485Z,100700.57
2022-08-24T04:28:19.162Z,100694.44
2022-08-24T04:30:52.833Z,100697.22
2022-08-24T04:33:27.499Z,100701.70
2022-08-24T04:35:57.380Z,100697.48
2022-08-24T04:38:28.438Z,100701.41
2022-08-24T04:41:13.542Z,100708.67
2022-08-24T04:43:45.087Z,100703.12
2022-08-24T04:46:17.890Z,100703.67
2022-08-24T04:48:49.070Z,100701.45
2022-08-24T04:51:19.772Z,100700.92
2022-08-24T04:53:50.401Z,100696.47
2022-08-24T04:56:25.402Z,100700.67
2022-08-24T04:58:57.159Z,100697.09
2022-08-24T05:01:29.705Z,100694.33
2022-08-24T05:04:00.369Z,100698.25
2022-08-24T05:06:32.058Z,100700.83
2022-08-24T05:09:02.523Z,100686.61
2022-08-24T05:11:33.094Z,100687.45
2022-08-24T05:14:03.734Z,100689.15
2022-08-24T05:16:34.746Z,100684.98
2022-08-24T05:19:06.882Z,100691.14
2022-08-24T05:21:35.959Z,100692.84
2022-08-24T05:24:05.737Z,100693.42
2022-08-24T05:26:35.707Z,100692.89
2022-08-24T05:29:06.258Z,100695.98
2022-08-24T05:31:37.536Z,100693.50
2022-08-24T05:34:10.826Z,100699.95
2022-08-24T05:36:41.879Z,100689.93
2022-08-24T05:39:14.066Z,100691.63
2022-08-24T05:41:46.592Z,100690.80
2022-08-24T05:44:18.728Z,100688.30
2022-08-24T05:46:49.960Z,100685.23
2022-08-24T05:49:19.273Z,100690.55
2022-08-24T05:51:49.727Z,100680.52
2022-08-24T05:54:18.860Z,100685.84
2022-08-24T05:56:54.699Z,100689.78
2022-08-24T05:59:24.900Z,100690.95
2022-08-24T06:01:55.035Z,100693.20
2022-08-24T06:04:24.349Z,100692.42
2022-08-24T06:06:55.425Z,100694.95
2022-08-24T06:09:25.463Z,100700.84
2022-08-24T06:11:55.578Z,100700.02
2022-08-24T06:14:27.150Z,100695.30
2022-08-24T06:16:59.876Z,100698.37
2022-08-24T06:19:29.729Z,100695.59
2022-08-24T06:21:59.907Z,100697.56
2022-08-24T06:24:49.410Z,100698.14
2022-08-24T06:27:23.132Z,100698.14
2022-08-24T06:30:00.842Z,100709.07
2022-08-24T06:32:48.975Z,100704.63
2022-08-24T06:35:22.708Z,100708.00
2022-08-24T06:37:53.030Z,100708.60
2022-08-24T06:40:24.629Z,100707.21
2022-08-24T06:42:54.304Z,100704.42
2022-08-24T06:45:26.733Z,100707.79
2022-08-24T06:47:56.793Z,100713.70
2022-08-24T06:50:26.890Z,100719.60
2022-08-24T06:52:58.170Z,100721.85
2022-08-24T06:55:29.499Z,100726.34
2022-08-24T06:57:59.018Z,100719.63
2022-08-24T07:00:30.633Z,100722.72
2022-08-24T07:03:02.129Z,100722.76
2022-08-24T07:05:32.369Z,100727.52
2022-08-24T07:08:04.711Z,100728.59
2022-08-24T07:10:34.517Z,100725.03
2022-08-24T07:13:04.328Z,100723.59
2022-08-24T07:15:35.562Z,100726.63
2022-08-24T07:18:10.070Z,100726.45
2022-08-24T07:20:42.489Z,100722.64
2022-08-24T07:23:14.688Z,100722.64
2022-08-24T07:25:49.615Z,100734.27
2022-08-24T07:28:17.490Z,100736.46
2022-08-24T07:30:49.147Z,100733.25
2022-08-24T07:33:21.117Z,100724.28
2022-08-24T07:35:50.479Z,100722.88
2022-08-24T07:38:21.903Z,100724.44
2022-08-24T07:43:24.268Z,100727.43
2022-08-24T07:45:54.537Z,100734.86
2022-08-24T07:48:24.818Z,100737.61
2022-08-24T07:50:54.892Z,100727.58
2022-08-24T07:53:32.386Z,100726.93
2022-08-24T07:55:56.890Z,100726.72
2022-08-24T07:58:26.686Z,100720.12
2022-08-24T08:00:57.373Z,100721.00
2022-08-24T08:03:29.149Z,100716.11
2022-08-24T08:06:04.301Z,100722.97
2022-08-24T08:08:39.774Z,100720.09
2022-08-24T08:11:11.287Z,100714.09
2022-08-24T08:13:44.281Z,100729.20
2022-08-24T08:16:14.467Z,100722.88
2022-08-24T08:18:45.505Z,100725.53
2022-08-24T08:21:17.395Z,100726.63
2022-08-24T08:24:04.617Z,100721.45
2022-08-24T08:26:37.670Z,100727.53
2022-08-24T08:29:15.309Z,100727.02
2022-08-24T08:31:44.272Z,100728.26
2022-08-24T08:34:13.814Z,100724.98
2022-08-24T08:36:44.688Z,100726.31
2022-08-24T08:39:15.929Z,100725.98
2022-08-24T08:42:05.705Z,100729.22
2022-08-24T08:44:48.238Z,100733.50
2022-08-24T08:47:43.782Z,100725.63
2022-08-24T08:50:25.204Z,100728.16
2022-08-24T08:53:21.404Z,100732.52
2022-08-24T08:56:18.675Z,100725.17
2022-08-24T08:59:17.978Z,100727.86
2022-08-24T09:02:11.557Z,100717.52
2022-08-24T09:05:24.766Z,100714.97
2022-08-24T09:08:21.623Z,100723.98
2022-08-24T09:11:21.936Z,100715.21
2022-08-24T09:14:31.570Z,100719.13
2022-08-24T09:17:19.146Z,100712.47
2022-08-24T09:20:13.281Z,100709.00
2022-08-24T09:22:46.599Z,100718.09
2022-08-24T09:25:41.631Z,100717.69
2022-08-24T09:28:46.737Z,100715.11
2022-08-24T09:31:45.861Z,100713.12
2022-08-24T09:35:01.694Z,100705.77
2022-08-24T09:37:47.750Z,100713.95
2022-08-24T09:40:53.407Z,100707.36
2022-08-24T09:43:58.319Z,100711.11
2022-08-24T09:46:53.893Z,100709.86
2022-08-24T09:50:03.127Z,100704.19
2022-08-24T09:53:08.884Z,100703.61
2022-08-24T09:56:19.281Z,100707.45
2022-08-24T09:59:08.677Z,100701.03
2022-08-24T10:02:05.317Z,100701.08
2022-08-24T10:04:58.517Z,100707.08
2022-08-24T10:07:56.122Z,100697.25
2022-08-24T10:10:28.840Z,100696.41
2022-08-24T10:13:24.495Z,100691.41
2022-08-24T10:16:26.589Z,100691.41
2022-08-24T10:19:28.527Z,100701.58
2022-08-24T10:22:19.607Z,100699.00
2022-08-24T10:25:03.943Z,100699.25
2022-08-24T10:27:56.874Z,100687.66
2022-08-24T10:30:38.601Z,100687.25
2022-08-24T10:33:28.396Z,100697.58
2022-08-24T10:36:24.519Z,100696.99
2022-08-24T10:39:20.053Z,100695.96
2022-08-24T10:41:59.952Z,100688.79
2022-08-24T10:44:49.971Z,100691.45
2022-08-24T10:47:30.865Z,100691.03
2022-08-24T10:50:31.440Z,100697.36
2022-08-24T10:53:20.968Z,100695.28
2022-08-24T10:56:08.010Z,100688.70
2022-08-24T10:58:51.870Z,100687.20
2022-08-24T11:01:29.018Z,100685.95
2022-08-24T11:04:14.365Z,100685.70
2022-08-24T11:07:07.158Z,100685.20
2022-08-24T11:09:56.038Z,100677.03
2022-08-24T11:12:30.238Z,100676.53
2022-08-24T11:15:02.585Z,100682.12
2022-08-24T11:17:34.898Z,100683.78
2022-08-24T11:20:05.915Z,100670.95
2022-08-24T11:22:41.108Z,100666.63
2022-08-24T11:25:19.078Z,100676.38
2022-08-24T11:27:51.808Z,100666.79
2022-08-24T11:30:25.224Z,100664.13
2022-08-24T11:32:58.231Z,100660.45
2022-08-24T11:35:37.186Z,100655.30
2022-08-24T11:38:17.100Z,100662.62
2022-08-24T11:41:14.277Z,100663.63
2022-08-24T11:44:07.310Z,100660.16
2022-08-24T11:46:45.798Z,100663.74
2022-08-24T11:49:24.314Z,100653.70
2022-08-24T11:52:05.428Z,100654.54
2022-08-24T11:55:12.193Z,100649.88
2022-08-24T11:58:03.645Z,100657.29
2022-08-24T12:00:52.224Z,100653.95
2022-08-24T12:03:52.499Z,100655.78
2022-08-24T12:06:56.691Z,100656.28
2022-08-24T12:09:46.817Z,100650.44
2022-08-24T12:12:43.054Z,100647.53
2022-08-24T12:15:28.653Z,100661.78
2022-08-24T12:18:34.705Z,100640.20
2022-08-24T12:21:04.971Z,100646.20
2022-08-24T12:23:44.818Z,100636.70
2022-08-24T12:26:43.646Z,100643.03
2022-08-24T12:29:52.908Z,100637.13
2022-08-24T12:32:29.222Z,100634.45
2022-08-24T12:35:06.646Z,100635.20
2022-08-24T12:37:49.595Z,100644.45
2022-08-24T12:40:42.086Z,100642.45
2022-08-24T12:43:25.754Z,100642.04
2022-08-24T12:46:01.260Z,100637.63
2022-08-24T12:48:42.684Z,100641.20
2022-08-24T12:51:43.997Z,100639.48
2022-08-24T12:54:27.526Z,100636.66
2022-08-24T12:57:39.643Z,100638.23
2022-08-24T13:00:18.138Z,100632.57
2022-08-24T13:03:06.759Z,100635.16
2022-08-24T13:05:44.400Z,100633.82
2022-08-24T13:08:22.762Z,100631.23
2022-08-24T13:11:09.153Z,100636.73
2022-08-24T13:14:09.066Z,100635.07
2022-08-24T13:17:01.994Z,100643.91
2022-08-24T13:19:39.860Z,100637.07
2022-08-24T13:22:17.998Z,100646.81
2022-08-24T13:24:58.621Z,100633.59
2022-08-24T13:27:43.289Z,100644.42
2022-08-24T13:30:23.862Z,100636.16
2022-08-24T13:33:04.283Z,100638.75
2022-08-24T13:35:57.748Z,100639.75
2022-08-24T13:38:42.672Z,100641.31
2022-08-24T13:41:38.592Z,100640.40
2022-08-24T13:44:17.105Z,100644.82
2022-08-24T13:47:19.556Z,100643.63
2022-08-24T13:50:13.201Z,100648.04
2022-08-24T13:52:51.899Z,100637.29
2022-08-24T13:55:50.524Z,100635.70
2022-08-24T13:58:39.210Z,100640.03
2022-08-24T14:01:36.721Z,100638.78
2022-08-24T14:04:26.220Z,100645.28
2022-08-24T14:07:25.042Z,100644.11
2022-08-24T14:10:46.200Z,100653.86
2022-08-24T14:14:08.384Z,100655.94
2022-08-24T14:17:35.946Z,100652.42
2022-08-24T14:20:45.925Z,100653.17
2022-08-24T14:23:32.905Z,100645.97
2022-08-24T14:26:31.374Z,100646.59
2022-08-24T14:29:22.189Z,100652.58
2022-08-24T14:32:12.600Z,100648.74
2022-08-24T14:34:51.270Z,100654.23
2022-08-24T14:38:14.850Z,100656.80
2022-08-24T14:41:10.068Z,100656.30
2022-08-24T14:44:13.705Z,100655.55
2022-08-24T14:47:00.481Z,100658.45
2022-08-24T14:50:13.160Z,100658.27
2022-08-24T14:53:11.522Z,100657.19
2022-08-24T14:55:47.012Z,100657.00
2022-08-24T14:58:44.894Z,100659.91
2022-08-24T15:01:40.030Z,100669.05
2022-08-24T15:04:36.323Z,100665.47
2022-08-24T15:07:29.284Z,100658.47
2022-08-24T15:09:59.530Z,100659.62
2022-08-24T15:12:39.408Z,100662.52
2022-08-24T15:15:47.690Z,100669.59
2022-08-24T15:18:36.205Z,100662.52
2022-08-24T15:21:46.541Z,100668.04
2022-08-24T15:24:39.142Z,100660.06
2022-08-24T15:27:30.851Z,100662.23
2022-08-24T15:30:02.989Z,100658.31
2022-08-24T15:32:48.761Z,100663.28
2022-08-24T15:35:31.772Z,100669.59
2022-08-24T15:38:27.468Z,100665.17
2022-08-24T15:41:17.181Z,100671.81
2022-08-24T15:44:00.389Z,100669.12
2022-08-24T15:46:35.334Z,100666.95
2022-08-24T15:49:18.556Z,100668.25
2022-08-24T15:52:00.845Z,100666.40
2022-08-24T15:54:46.208Z,100677.84
2022-08-24T15:57:26.686Z,100674.32
2022-08-24T16:00:14.228Z,100682.94
2022-08-24T16:02:43.803Z,100680.89
2022-08-24T16:05:27.285Z,100690.21
2022-08-24T16:08:08.033Z,100690.21
2022-08-24T16:10:52.858Z,100686.10
2022-08-24T16:13:29.549Z,100694.67
2022-08-24T16:16:11.584Z,100690.82
2022-08-24T16:18:58.419Z,100695.16
2022-08-24T16:21:39.873Z,100692.97
2022-08-24T16:24:22.519Z,100695.92
2022-08-24T16:27:08.660Z,100688.27
2022-08-24T16:29:45.061Z,100688.27
2022-08-24T16:32:31.705Z,100685.81
2022-08-24T16:35:12.439Z,100693.25
2022-08-24T16:37:42.775Z,100699.86
2022-08-24T16:40:12.846Z,100689.52
2022-08-24T16:42:44.367Z,100697.84
2022-08-24T16:45:18.424Z,100697.64
2022-08-24T16:47:48.765Z,100699.97
2022-08-24T16:50:19.553Z,100704.06
2022-08-24T16:52:50.147Z,100707.83
2022-08-24T16:55:21.521Z,100705.09
2022-08-24T16:57:51.374Z,100707.19
2022-08-24T17:00:21.807Z,100715.45
2022-08-24T17:02:52.154Z,100719.37
2022-08-24T17:05:21.993Z,100719.37
2022-08-24T17:07:51.939Z,100723.70
2022-08-24T17:10:23.667Z,100722.70
2022-08-24T17:12:54.106Z,100717.73
2022-08-24T17:15:23.890Z,100724.07
2022-08-24T17:18:06.353Z,100728.97
2022-08-24T17:20:41.763Z,100729.38
2022-08-24T17:23:15.972Z,100731.16
2022-08-24T17:25:45.480Z,100740.29
2022-08-24T17:28:18.003Z,100740.69
2022-08-24T17:30:51.387Z,100735.41
2022-08-24T17:33:20.405Z,100752.94
2022-08-24T17:35:51.514Z,100749.64
2022-08-24T17:38:21.977Z,100747.74
2022-08-24T17:40:52.030Z,100746.68
2022-08-24T17:43:24.822Z,100751.80
2022-08-24T17:45:54.622Z,100752.45
2022-08-24T17:48:26.181Z,100753.11
2022-08-24T17:50:55.149Z,100760.50
2022-08-24T17:53:24.907Z,100758.59
2022-08-24T17:55:55.248Z,100760.36
2022-08-24T17:58:25.658Z,100762.98
2022-08-24T18:00:55.077Z,100766.41
2022-08-24T18:03:25.490Z,100764.51
2022-08-24T18:05:56.181Z,100761.20
2022-08-24T18:08:27.045Z,100760.13
2022-08-24T18:10:56.876Z,100769.75
2022-08-24T18:13:26.794Z,100761.41
2022-08-24T18:15:57.171Z,100765.64
2022-08-24T18:18:27.434Z,100768.76
2022-08-24T18:20:57.633Z,100768.26
2022-08-24T18:23:26.649Z,100770.56
2022-08-24T18:25:56.944Z,100771.47
2022-08-24T18:28:26.351Z,100762.23
2022-08-24T18:30:57.069Z,100765.94
2022-08-24T18:33:26.994Z,100767.95
2022-08-24T18:35:56.918Z,100764.87
2022-08-24T18:38:28.164Z,100759.58
2022-08-24T18:40:58.816Z,100762.69
2022-08-24T18:43:29.202Z,100764.42
2022-08-24T18:45:59.516Z,100761.67
2022-08-24T18:48:29.811Z,100765.95
2022-08-24T18:51:00.280Z,100759.81
2022-08-24T18:53:30.231Z,100761.25
2022-08-24T18:56:08.197Z,100765.20
2022-08-24T18:58:33.158Z,100754.55
2022-08-24T19:01:04.369Z,100759.06
2022-08-24T19:03:35.718Z,100750.08
2022-08-24T19:06:05.406Z,100750.41
2022-08-24T19:08:36.728Z,100749.90
2022-08-24T19:11:06.903Z,100750.52
2022-08-24T19:13:38.831Z,100751.70
2022-08-24T19:16:07.982Z,100753.70
2022-08-24T19:18:38.617Z,100759.05
2022-08-24T19:21:07.845Z,100759.34
2022-08-24T19:23:39.083Z,100756.86
2022-08-24T19:26:08.549Z,100759.97
2022-08-24T19:28:40.073Z,100757.16
2022-08-24T19:31:12.419Z,100751.28
2022-08-24T19:33:45.760Z,100754.69
2022-08-24T19:36:16.429Z,100755.55
2022-08-24T19:38:45.848Z,100754.44
2022-08-24T19:41:15.711Z,100753.89
2022-08-24T19:44:12.676Z,100748.57
2022-08-24T19:46:43.714Z,100754.80
2022-08-24T19:49:14.244Z,100755.95
2022-08-24T19:51:43.717Z,100749.27
2022-08-24T19:54:13.564Z,100763.05
2022-08-24T19:56:42.734Z,100764.76
2022-08-24T19:59:27.308Z,100764.20
2022-08-24T20:01:57.650Z,100759.17
2022-08-24T20:04:27.423Z,100757.79
2022-08-24T20:06:57.282Z,100763.70
2022-08-24T20:09:28.539Z,100757.27
2022-08-24T20:11:57.374Z,100765.98
2022-08-24T20:14:27.171Z,100762.36
2022-08-24T20:16:57.036Z,100761.80
2022-08-24T20:19:27.685Z,100765.19
2022-08-24T20:21:57.792Z,100763.25
2022-08-24T20:24:27.328Z,100763.00
2022-08-24T20:26:58.020Z,100763.02
2022-08-24T20:29:28.364Z,100764.72
2022-08-24T20:32:00.051Z,100767.55
2022-08-24T20:34:30.177Z,100772.88
2022-08-24T20:37:00.108Z,100768.69
2022-08-24T20:39:30.126Z,100771.52
2022-08-24T20:41:59.903Z,100768.46
2022-08-24T20:44:31.111Z,100764.25
2022-08-24T20:47:01.137Z,100768.20
2022-08-24T20:49:31.302Z,100779.17
2022-08-24T20:52:01.362Z,100769.66
2022-08-24T20:54:31.650Z,100778.95
2022-08-24T20:57:01.858Z,100773.35
2022-08-24T20:59:31.975Z,100773.38
2022-08-24T21:02:02.777Z,100779.00
2022-08-24T21:04:32.549Z,100779.30
2022-08-24T21:07:02.017Z,100774.01
2022-08-24T21:09:32.189Z,100778.77
2022-08-24T21:12:01.798Z,100772.33
2022-08-24T21:14:30.818Z,100777.95
2022-08-24T21:17:00.726Z,100777.39
2022-08-24T21:19:31.039Z,100782.70
2022-08-24T21:22:01.011Z,100783.83
2022-08-24T21:24:30.980Z,100785.23
2022-08-24T21:27:01.789Z,100781.88
2022-08-24T21:29:31.278Z,100787.20
2022-08-24T21:32:19.189Z,100781.88
2022-08-24T21:34:48.092Z,100778.52
2022-08-24T21:37:18.129Z,100775.72
2022-08-24T21:39:47.119Z,100782.13
2022-08-24T21:42:17.285Z,100779.05
2022-08-24T21:44:49.261Z,100789.13
2022-08-24T21:47:19.170Z,100776.80
2022-08-24T21:49:51.004Z,100780.72
2022-08-24T21:52:20.065Z,100778.44
2022-08-24T21:54:51.709Z,100777.31
2022-08-24T21:57:22.619Z,100774.50
2022-08-24T21:59:53.849Z,100774.22
2022-08-24T22:02:23.065Z,100777.56
2022-08-24T22:04:56.269Z,100774.20
2022-08-24T22:07:27.554Z,100777.25
2022-08-24T22:09:57.706Z,100769.67
2022-08-24T22:12:27.994Z,100768.55
2022-08-24T22:14:58.480Z,100768.77
2022-08-24T22:17:28.150Z,100770.98
2022-08-24T22:19:59.524Z,100771.47
2022-08-24T22:22:30.164Z,100773.13
2022-08-24T22:25:00.032Z,100775.64
2022-08-24T22:27:29.458Z,100775.08
2022-08-24T22:30:00.352Z,100772.55
2022-08-24T22:32:30.413Z,100768.59
2022-08-24T22:34:59.987Z,100763.80
2022-08-24T22:37:29.693Z,100769.92
2022-08-24T22:39:59.542Z,100765.97
2022-08-24T22:42:29.534Z,100764.54
2022-08-24T22:45:01.111Z,100760.89
2022-08-24T22:47:32.003Z,100761.73
2022-08-24T22:50:03.978Z,100761.72
2022-08-24T22:52:33.937Z,100766.16
2022-08-24T22:55:05.472Z,100760.46
2022-08-24T22:57:34.943Z,100756.80
2022-08-24T23:00:08.570Z,100753.43
2022-08-24T23:02:39.171Z,100751.17
2022-08-24T23:05:09.587Z,100746.93
2022-08-24T23:07:40.313Z,100753.88
2022-08-24T23:10:13.179Z,100751.87
2022-08-24T23:12:42.227Z,100746.82
2022-08-24T23:15:13.832Z,100751.28
2022-08-24T23:17:42.935Z,100748.16
2022-08-24T23:20:12.534Z,100755.94
2022-08-24T23:22:43.192Z,100755.38
2022-08-24T23:25:12.924Z,100750.06
2022-08-24T23:27:42.364Z,100754.52
2022-08-24T23:30:13.927Z,100751.73
2022-08-24T23:32:43.434Z,100753.95
2022-08-24T23:35:13.574Z,100753.63
2022-08-24T23:37:43.490Z,100750.55
2022-08-24T23:40:13.700Z,100746.06
2022-08-24T23:42:43.807Z,100742.98
2022-08-24T23:45:13.756Z,100748.83
2022-08-24T23:47:44.162Z,100745.69
2022-08-24T23:50:14.408Z,100746.25
2022-08-24T23:52:44.386Z,100742.59
2022-08-24T23:55:21.228Z,100752.30
2022-08-24T23:57:45.589Z,100745.30
